createdAt,value
2023-02-02T00:09:26.759Z,41.29
2023-02-02T00:19:32.417Z,41.11
2023-02-02T00:29:37.248Z,41.29
2023-02-02T00:39:42.493Z,40.86
2023-02-02T00:49:47.981Z,40.97
2023-02-02T00:59:53.549Z,41.05
2023-02-02T01:09:58.613Z,40.91
2023-02-02T01:20:03.808Z,41.00
2023-02-02T01:30:09.024Z,40.56
2023-02-02T01:40:14.245Z,40.90
2023-02-02T01:50:19.249Z,40.79
2023-02-02T02:00:24.719Z,40.83
2023-02-02T02:10:29.949Z,40.86
2023-02-02T02:20:35.043Z,40.53
2023-02-02T02:30:40.447Z,40.86
2023-02-02T02:40:45.675Z,40.72
2023-02-02T02:50:50.651Z,40.69
2023-02-02T03:00:55.966Z,40.76
2023-02-02T03:11:01.191Z,40.77
2023-02-02T03:21:06.806Z,40.93
2023-02-02T03:31:12.215Z,40.90
2023-02-02T03:41:17.392Z,40.87
2023-02-02T03:51:22.970Z,40.74
2023-02-02T04:01:28.147Z,40.72
2023-02-02T04:11:33.332Z,40.84
2023-02-02T04:21:38.520Z,40.99
2023-02-02T04:31:43.715Z,40.90
2023-02-02T04:41:48.848Z,40.93
2023-02-02T04:51:53.941Z,40.83
2023-02-02T05:01:58.977Z,40.91
2023-02-02T05:12:04.288Z,41.11
2023-02-02T05:22:09.484Z,41.11
2023-02-02T05:32:14.892Z,41.13
2023-02-02T05:42:20.471Z,41.17
2023-02-02T05:52:25.420Z,40.92
2023-02-02T06:02:30.432Z,41.01
2023-02-02T06:12:35.645Z,41.12
2023-02-02T06:22:41.225Z,41.14
2023-02-02T06:32:46.707Z,41.17
2023-02-02T06:42:52.171Z,41.19
2023-02-02T06:52:57.472Z,41.15
2023-02-02T07:03:02.842Z,41.13
2023-02-02T07:13:08.489Z,41.29
2023-02-02T07:23:13.965Z,41.05
2023-02-02T07:33:19.159Z,41.23
2023-02-02T07:43:24.550Z,41.08
2023-02-02T07:53:30.147Z,41.29
2023-02-02T08:03:35.378Z,41.27
2023-02-02T08:13:40.840Z,41.27
2023-02-02T08:23:46.141Z,41.27
2023-02-02T08:33:51.407Z,41.36
2023-02-02T08:43:56.667Z,41.71
2023-02-02T08:54:01.935Z,41.43
2023-02-02T09:04:07.415Z,41.74
2023-02-02T09:14:12.790Z,41.68
2023-02-02T09:24:18.336Z,41.51
2023-02-02T09:34:24.451Z,41.35
2023-02-02T09:44:30.194Z,41.29
2023-02-02T09:54:35.532Z,41.52
2023-02-02T10:04:41.278Z,41.38
2023-02-02T10:14:46.864Z,41.32
2023-02-02T10:24:51.934Z,41.21
2023-02-02T10:35:11.067Z,40.75
2023-02-02T10:45:07.746Z,40.90
2023-02-02T10:55:13.139Z,40.95
2023-02-02T11:05:18.728Z,41.08
2023-02-02T11:15:24.134Z,41.20
2023-02-02T11:25:29.403Z,41.25
2023-02-02T11:35:35.358Z,41.33
2023-02-02T11:45:40.432Z,41.32
2023-02-02T11:55:45.787Z,41.30
2023-02-02T12:05:51.397Z,41.38
2023-02-02T12:15:56.500Z,41.33
2023-02-02T12:26:02.017Z,41.44
2023-02-02T12:36:07.527Z,41.39
2023-02-02T12:46:13.323Z,41.40
2023-02-02T12:56:18.820Z,41.43
2023-02-02T13:06:24.468Z,41.45
2023-02-02T13:16:29.661Z,41.47
2023-02-02T13:27:55.211Z,41.45
2023-02-02T13:38:00.057Z,41.43
2023-02-02T13:48:05.570Z,41.41
2023-02-02T13:58:10.746Z,41.39
2023-02-02T14:08:16.127Z,41.29
2023-02-02T14:18:21.243Z,41.32
2023-02-02T14:28:26.441Z,41.30
2023-02-02T14:38:31.615Z,41.27
2023-02-02T14:48:37.335Z,41.31
2023-02-02T14:58:42.768Z,41.34
2023-02-02T15:08:48.241Z,41.26
2023-02-02T15:18:53.584Z,41.31
2023-02-02T15:28:59.252Z,41.30
2023-02-02T15:39:04.881Z,41.34
2023-02-02T15:49:12.578Z,41.34
2023-02-02T15:59:19.709Z,41.27
2023-02-02T16:09:25.244Z,41.27
2023-02-02T16:19:30.651Z,41.23
2023-02-02T16:29:36.343Z,41.23
2023-02-02T16:39:41.742Z,41.23
2023-02-02T16:49:46.836Z,41.26
2023-02-02T16:59:52.485Z,41.26
2023-02-02T17:09:57.911Z,41.17
2023-02-02T17:20:03.299Z,41.17
2023-02-02T17:30:08.628Z,41.22
2023-02-02T17:40:13.707Z,41.17
2023-02-02T17:50:19.339Z,40.48
2023-02-02T18:00:25.425Z,40.68
2023-02-02T18:10:31.081Z,40.66
2023-02-02T18:20:37.096Z,40.83
2023-02-02T18:30:42.317Z,40.83
2023-02-02T18:40:47.880Z,40.76
2023-02-02T18:50:53.357Z,40.65
2023-02-02T19:00:58.514Z,40.72
2023-02-02T19:11:03.621Z,40.71
2023-02-02T19:21:09.305Z,40.66
2023-02-02T19:31:14.712Z,40.52
2023-02-02T19:41:19.865Z,40.48
2023-02-02T19:51:24.986Z,40.38
2023-02-02T20:01:30.267Z,40.50
2023-02-02T20:11:35.840Z,40.37
2023-02-02T20:21:40.967Z,40.40
2023-02-02T20:31:46.433Z,40.31
2023-02-02T20:41:52.140Z,40.36
2023-02-02T20:51:57.513Z,40.19
2023-02-02T21:02:02.837Z,40.12
2023-02-02T21:12:08.329Z,40.26
2023-02-02T21:22:13.537Z,40.21
2023-02-02T21:32:18.907Z,40.07
2023-02-02T21:42:24.246Z,40.16
2023-02-02T21:52:29.311Z,40.03
2023-02-02T22:02:34.955Z,39.84
2023-02-02T22:12:40.760Z,39.83
2023-02-02T22:22:46.294Z,39.90
2023-02-02T22:32:51.729Z,40.02
2023-02-02T22:42:57.209Z,39.82
2023-02-02T22:53:02.972Z,39.89
2023-02-02T23:03:08.328Z,39.81
2023-02-02T23:13:13.631Z,39.76
2023-02-02T23:23:18.824Z,39.92
2023-02-02T23:33:24.273Z,39.64
2023-02-02T23:43:29.638Z,39.62
2023-02-02T23:53:35.007Z,39.96
